Time;durP1;ratioP1;P1;durP2;ratioP2;P2;SDS_P1;SDS_P2;PMS_P1;PMS_P2;Temp;Humidity;BMP_temperature;BMP_pressure;BME280_temperature;BME280_humidity;BME280_pressure;Samples;Min_cycle;Max_cycle;Signal;HPM_P1;HPM_P2
2023/08/13 00:01:07;;;;;;;6.05;4.05;;;15.80;99.90;;;;;;4989963;28;89776;-36
2023/08/13 00:03:32;;;;;;;6.22;4.05;;;15.80;99.90;;;;;;4999825;28;89779;-37
2023/08/13 00:05:58;;;;;;;9.52;3.92;;;15.80;99.90;;;;;;5000179;28;89935;-35
2023/08/13 00:08:24;;;;;;;9.13;3.53;;;15.80;99.90;;;;;;4987608;28;88520;-34
2023/08/13 00:10:49;;;;;;;7.10;4.18;;;15.80;99.90;;;;;;4986847;28;90832;-31
2023/08/13 00:13:16;;;;;;;9.55;3.88;;;15.80;99.90;;;;;;4986900;28;89734;-29
2023/08/13 00:15:41;;;;;;;7.28;3.47;;;15.80;99.90;;;;;;4986394;28;90114;-31
2023/08/13 00:18:07;;;;;;;14.15;4.45;;;15.80;99.90;;;;;;4986910;28;89412;-37
2023/08/13 00:20:33;;;;;;;10.25;3.83;;;15.80;99.90;;;;;;4980855;28;90489;-32
2023/08/13 00:22:58;;;;;;;7.40;3.97;;;15.80;99.90;;;;;;4980477;28;89487;-34
2023/08/13 00:25:24;;;;;;;8.85;4.22;;;15.80;99.90;;;;;;4980306;28;90647;-32
2023/08/13 00:27:49;;;;;;;9.85;4.18;;;15.80;99.90;;;;;;4980734;28;88773;-31
2023/08/13 00:30:15;;;;;;;7.55;3.70;;;15.70;99.90;;;;;;4992760;28;90687;-33
2023/08/13 00:32:41;;;;;;;10.60;4.82;;;15.80;99.90;;;;;;4980266;28;89671;-39
2023/08/13 00:35:07;;;;;;;6.75;3.72;;;15.80;99.90;;;;;;4980077;28;89597;-34
2023/08/13 00:37:35;;;;;;;6.78;4.18;;;15.80;99.90;;;;;;4988043;28;89411;-31
2023/08/13 00:40:00;;;;;;;5.18;3.53;;;15.90;99.90;;;;;;4999719;28;90340;-38
2023/08/13 00:42:26;;;;;;;10.98;4.65;;;15.90;99.90;;;;;;4998959;28;89742;-38
2023/08/13 00:44:51;;;;;;;10.13;4.63;;;15.90;99.90;;;;;;4997141;28;90655;-38
2023/08/13 00:47:17;;;;;;;12.70;3.72;;;15.90;99.90;;;;;;4979910;28;88434;-33
2023/08/13 00:49:43;;;;;;;10.68;4.32;;;15.90;99.90;;;;;;4994469;28;90334;-32
2023/08/13 00:52:09;;;;;;;11.63;5.28;;;16.00;99.90;;;;;;4999341;28;90181;-35
2023/08/13 00:54:35;;;;;;;11.02;4.20;;;16.00;99.90;;;;;;4998955;28;89513;-36
2023/08/13 00:57:02;;;;;;;13.52;4.47;;;16.00;99.90;;;;;;5000247;28;90573;-30
2023/08/13 00:59:30;;;;;;;10.95;3.83;;;16.10;99.90;;;;;;4998817;28;88849;-35
2023/08/13 01:01:56;;;;;;;10.67;4.47;;;16.10;99.90;;;;;;4982261;28;91778;-31
2023/08/13 01:04:22;;;;;;;5.07;4.15;;;16.10;99.90;;;;;;4997989;28;89516;-33
2023/08/13 01:07:13;;;;;;;14.68;4.95;;;16.10;99.90;;;;;;4999236;28;88361;-35
2023/08/13 01:10:09;;;;;;;16.02;4.85;;;16.10;99.90;;;;;;4987973;28;90751;-37
2023/08/13 01:13:01;;;;;;;6.63;4.30;;;16.10;99.90;;;;;;4986207;28;89545;-34
2023/08/13 01:15:31;;;;;;;12.63;4.22;;;16.10;99.90;;;;;;4998327;28;90605;-31
2023/08/13 01:17:59;;;;;;;10.55;4.75;;;16.10;99.90;;;;;;4998881;28;88875;-34
2023/08/13 01:20:32;;;;;;;7.57;4.00;;;16.20;99.90;;;;;;4997779;28;90129;-33
2023/08/13 01:22:58;;;;;;;8.60;4.45;;;16.20;99.90;;;;;;4998703;28;90020;-36
2023/08/13 01:25:28;;;;;;;12.85;4.40;;;16.20;99.90;;;;;;4997433;28;91086;-34
2023/08/13 01:27:53;;;;;;;12.05;4.53;;;16.20;99.90;;;;;;4997766;28;89543;-32
2023/08/13 01:30:49;;;;;;;11.77;5.10;;;16.20;99.90;;;;;;4999077;28;91096;-32
2023/08/13 01:33:26;;;;;;;11.27;4.78;;;16.20;99.90;;;;;;4996610;28;89094;-34
2023/08/13 01:35:56;;;;;;;7.55;4.05;;;16.20;99.90;;;;;;4997388;28;89817;-35
2023/08/13 01:38:23;;;;;;;12.77;5.03;;;16.20;99.90;;;;;;4992913;28;88461;-35
2023/08/13 01:40:49;;;;;;;11.50;4.40;;;16.20;99.90;;;;;;4998433;28;90034;-36
2023/08/13 01:43:15;;;;;;;15.75;4.72;;;16.20;99.90;;;;;;4998562;28;89186;-31
2023/08/13 01:45:41;;;;;;;11.50;4.68;;;16.20;99.90;;;;;;4998723;28;90511;-35
2023/08/13 01:48:07;;;;;;;9.27;4.68;;;16.20;99.90;;;;;;4996102;28;88326;-38
2023/08/13 01:50:32;;;;;;;10.68;4.50;;;16.20;99.90;;;;;;4979147;28;90992;-32
2023/08/13 01:52:58;;;;;;;11.93;4.70;;;16.20;99.90;;;;;;4981010;28;90262;-35
2023/08/13 01:55:24;;;;;;;6.88;4.82;;;16.20;99.90;;;;;;4992895;28;90180;-36
2023/08/13 01:57:49;;;;;;;10.23;4.63;;;16.20;99.90;;;;;;4984142;28;90236;-35
2023/08/13 02:00:15;;;;;;;14.88;5.32;;;16.20;99.90;;;;;;4989297;28;90327;-33
2023/08/13 02:02:41;;;;;;;10.27;4.47;;;16.20;99.90;;;;;;4996526;28;91060;-33
2023/08/13 02:05:07;;;;;;;10.82;4.35;;;16.10;99.90;;;;;;4998713;28;89551;-35
2023/08/13 02:07:33;;;;;;;10.98;5.50;;;16.10;99.90;;;;;;4998170;28;88538;-32
2023/08/13 02:09:59;;;;;;;9.45;4.55;;;16.10;99.90;;;;;;4998277;28;89945;-33
2023/08/13 02:12:25;;;;;;;7.85;4.18;;;16.10;99.90;;;;;;4997220;28;90095;-29
2023/08/13 02:14:50;;;;;;;10.57;4.50;;;16.10;99.90;;;;;;4997886;28;91049;-33
2023/08/13 02:17:16;;;;;;;7.60;4.93;;;16.10;99.90;;;;;;4998077;28;88888;-31
2023/08/13 02:19:42;;;;;;;12.05;4.28;;;16.00;99.90;;;;;;4997880;28;90546;-31
2023/08/13 02:22:07;;;;;;;7.47;4.85;;;16.00;99.90;;;;;;4995219;28;90436;-36
2023/08/13 02:24:33;;;;;;;11.02;5.22;;;16.00;99.90;;;;;;4997147;28;89504;-30
2023/08/13 02:26:59;;;;;;;6.65;3.95;;;16.00;99.90;;;;;;4996167;28;89522;-31
2023/08/13 02:29:25;;;;;;;13.30;5.80;;;15.90;99.90;;;;;;4995988;28;89995;-35
2023/08/13 02:31:50;;;;;;;10.93;4.72;;;15.90;99.90;;;;;;4996577;28;89618;-34
2023/08/13 02:34:16;;;;;;;9.38;3.92;;;15.90;99.90;;;;;;4995473;28;89543;-35
2023/08/13 02:36:42;;;;;;;10.10;4.70;;;15.90;99.90;;;;;;4996704;28;88619;-36
2023/08/13 02:39:08;;;;;;;11.80;5.15;;;15.90;99.90;;;;;;4997884;28;90131;-35
2023/08/13 02:41:33;;;;;;;6.93;4.63;;;15.90;99.90;;;;;;4999103;28;89969;-32
2023/08/13 02:43:59;;;;;;;13.13;4.35;;;15.90;99.90;;;;;;4997218;28;89389;-30
2023/08/13 02:46:26;;;;;;;11.13;4.82;;;15.80;99.90;;;;;;4995670;28;89845;-37
2023/08/13 02:48:54;;;;;;;12.25;6.10;;;15.80;99.90;;;;;;4996476;28;91344;-31
2023/08/13 02:51:20;;;;;;;15.27;4.88;;;15.80;99.90;;;;;;4996855;28;89386;-32
2023/08/13 02:53:46;;;;;;;8.85;4.75;;;15.80;99.90;;;;;;4996161;28;89683;-31
2023/08/13 02:56:12;;;;;;;11.98;5.00;;;15.80;99.90;;;;;;4997624;28;88645;-36
2023/08/13 02:58:37;;;;;;;9.32;4.20;;;15.80;99.90;;;;;;4996675;28;90389;-37
2023/08/13 03:01:03;;;;;;;12.25;4.57;;;15.70;99.90;;;;;;4997568;28;90038;-33
2023/08/13 03:03:30;;;;;;;10.93;4.65;;;15.70;99.90;;;;;;4995587;28;89418;-34
2023/08/13 03:05:56;;;;;;;11.68;5.85;;;15.70;99.90;;;;;;4997324;28;88528;-31
2023/08/13 03:08:22;;;;;;;10.43;4.22;;;15.60;99.90;;;;;;4997896;28;90118;-37
2023/08/13 03:10:47;;;;;;;9.82;5.20;;;15.60;99.90;;;;;;4997495;28;90918;-31
2023/08/13 03:13:13;;;;;;;10.82;4.75;;;15.60;99.90;;;;;;4994076;28;90745;-36
2023/08/13 03:15:39;;;;;;;12.13;5.50;;;15.60;99.90;;;;;;5001521;28;88489;-31
2023/08/13 03:18:05;;;;;;;12.52;4.65;;;15.60;99.90;;;;;;4994888;28;90319;-31
2023/08/13 03:20:30;;;;;;;8.65;5.28;;;15.60;99.90;;;;;;4997766;28;90071;-35
2023/08/13 03:22:56;;;;;;;13.48;6.10;;;15.60;99.90;;;;;;4996655;28;89415;-34
2023/08/13 03:25:22;;;;;;;14.10;5.00;;;15.60;99.90;;;;;;4997684;28;88690;-34
2023/08/13 03:27:48;;;;;;;12.07;5.13;;;15.50;99.90;;;;;;4994593;28;92001;-31
2023/08/13 03:30:14;;;;;;;8.05;5.03;;;15.50;99.90;;;;;;4996982;28;90144;-33
2023/08/13 03:32:40;;;;;;;6.20;5.05;;;15.50;99.90;;;;;;4994540;28;90568;-32
2023/08/13 03:35:06;;;;;;;7.10;4.75;;;15.50;99.90;;;;;;4997455;28;90273;-34
2023/08/13 03:37:32;;;;;;;12.23;5.05;;;15.50;99.90;;;;;;4982238;28;91096;-39
2023/08/13 03:39:57;;;;;;;9.18;4.70;;;15.40;99.90;;;;;;5000102;28;89969;-30
2023/08/13 03:42:23;;;;;;;12.75;5.43;;;15.40;99.90;;;;;;5000371;28;90296;-30
2023/08/13 03:44:49;;;;;;;12.02;6.25;;;15.40;99.90;;;;;;5000614;28;89815;-31
2023/08/13 03:47:14;;;;;;;9.35;5.53;;;15.40;99.90;;;;;;4999728;28;90455;-35
2023/08/13 03:49:40;;;;;;;11.43;5.50;;;15.30;99.90;;;;;;4998777;28;90021;-37
2023/08/13 03:52:06;;;;;;;14.05;5.10;;;15.40;99.90;;;;;;4999416;28;90630;-35
2023/08/13 03:54:31;;;;;;;16.25;5.45;;;15.40;99.90;;;;;;4998568;28;88705;-35
2023/08/13 03:56:57;;;;;;;12.70;4.80;;;15.40;99.90;;;;;;5000555;28;89080;-33
2023/08/13 03:59:23;;;;;;;9.52;5.45;;;15.30;99.90;;;;;;4980796;28;91962;-35
2023/08/13 04:01:48;;;;;;;13.27;6.35;;;15.30;99.90;;;;;;5000588;28;90560;-32
2023/08/13 04:04:14;;;;;;;6.78;5.20;;;15.30;99.90;;;;;;4996271;28;88318;-33
2023/08/13 04:06:40;;;;;;;10.07;5.35;;;15.30;99.90;;;;;;4997325;28;90497;-32
2023/08/13 04:09:06;;;;;;;9.07;5.13;;;15.30;99.90;;;;;;4996659;28;89651;-31
2023/08/13 04:11:31;;;;;;;13.35;4.82;;;15.30;99.90;;;;;;4996471;28;90112;-31
2023/08/13 04:13:57;;;;;;;15.50;5.07;;;15.30;99.90;;;;;;4993242;28;88960;-31
2023/08/13 04:16:23;;;;;;;7.63;4.65;;;15.30;99.90;;;;;;5000075;28;90976;-32
2023/08/13 04:18:50;;;;;;;9.93;5.18;;;15.30;99.90;;;;;;4995253;28;89467;-38
2023/08/13 04:21:16;;;;;;;13.25;5.40;;;15.30;99.90;;;;;;4997083;28;89495;-31
2023/08/13 04:23:42;;;;;;;15.10;5.82;;;15.30;99.90;;;;;;4991673;28;89638;-34
2023/08/13 04:26:08;;;;;;;15.82;5.70;;;15.30;99.90;;;;;;4996396;28;89426;-33
2023/08/13 04:28:34;;;;;;;12.80;4.93;;;15.30;99.90;;;;;;4992728;28;89853;-32
2023/08/13 04:30:59;;;;;;;13.57;5.60;;;15.30;99.90;;;;;;4996564;28;89287;-35
2023/08/13 04:33:25;;;;;;;13.38;4.72;;;15.30;99.90;;;;;;4996586;28;89421;-36
2023/08/13 04:35:54;;;;;;;7.65;5.47;;;15.30;99.90;;;;;;4999133;28;90341;-30
2023/08/13 04:38:21;;;;;;;12.60;4.97;;;15.30;99.90;;;;;;4994865;28;89744;-30
2023/08/13 04:40:47;;;;;;;8.80;4.40;;;15.40;99.90;;;;;;4989919;28;89523;-31
2023/08/13 04:43:14;;;;;;;11.68;4.72;;;15.40;99.90;;;;;;4988228;28;88355;-32
2023/08/13 04:45:39;;;;;;;14.45;4.68;;;15.50;99.90;;;;;;4991478;28;90042;-31
2023/08/13 04:48:05;;;;;;;8.40;4.88;;;15.60;99.90;;;;;;4984262;28;90319;-36
2023/08/13 04:50:32;;;;;;;17.20;4.78;;;15.60;99.90;;;;;;4981749;28;90643;-35
2023/08/13 04:52:58;;;;;;;11.45;5.35;;;15.70;99.90;;;;;;4984742;28;87807;-34
2023/08/13 04:55:23;;;;;;;7.85;5.28;;;15.70;99.90;;;;;;4982884;28;90535;-35
2023/08/13 04:57:49;;;;;;;10.75;5.38;;;15.80;99.90;;;;;;4986007;28;90103;-32
2023/08/13 05:00:15;;;;;;;6.38;4.32;;;15.80;99.90;;;;;;4990411;28;89433;-33
2023/08/13 05:02:41;;;;;;;8.68;4.97;;;16.00;99.90;;;;;;4993684;28;89745;-32
2023/08/13 05:05:07;;;;;;;12.13;5.30;;;16.10;99.90;;;;;;4979441;28;89790;-32
2023/08/13 05:07:32;;;;;;;9.77;6.55;;;16.20;99.90;;;;;;4985055;28;89476;-30
2023/08/13 05:09:58;;;;;;;11.30;5.40;;;16.30;99.90;;;;;;4987024;28;90135;-34
2023/08/13 05:12:24;;;;;;;13.52;4.82;;;16.40;99.90;;;;;;4978990;28;89472;-34
2023/08/13 05:14:49;;;;;;;10.95;5.25;;;16.50;99.90;;;;;;4991748;28;89986;-33
2023/08/13 05:17:22;;;;;;;14.63;5.75;;;16.60;99.90;;;;;;4992060;28;89774;-38
2023/08/13 05:19:48;;;;;;;24.48;6.53;;;16.60;99.90;;;;;;4991887;28;90005;-34
2023/08/13 05:22:14;;;;;;;11.48;5.25;;;16.80;99.90;;;;;;4997728;28;87945;-33
2023/08/13 05:24:39;;;;;;;11.57;4.60;;;16.90;99.90;;;;;;4997498;28;90329;-33
2023/08/13 05:27:05;;;;;;;8.40;4.03;;;17.00;99.90;;;;;;4997787;28;88989;-32
2023/08/13 05:29:31;;;;;;;14.02;4.57;;;17.00;99.90;;;;;;4995300;28;89103;-33
2023/08/13 05:31:56;;;;;;;13.82;5.45;;;16.90;99.90;;;;;;4996456;28;90037;-32
2023/08/13 05:34:22;;;;;;;10.07;5.32;;;16.90;99.90;;;;;;4995560;28;89113;-32
2023/08/13 05:36:48;;;;;;;10.35;5.07;;;16.80;99.90;;;;;;4994374;28;90251;-31
2023/08/13 05:39:13;;;;;;;6.78;4.43;;;16.90;99.90;;;;;;4991331;28;90635;-36
2023/08/13 05:41:39;;;;;;;11.55;5.85;;;16.90;99.90;;;;;;4988006;28;89509;-33
2023/08/13 05:44:05;;;;;;;7.30;5.03;;;17.00;99.90;;;;;;4991215;28;90145;-34
2023/08/13 05:46:30;;;;;;;14.55;5.53;;;17.10;99.90;;;;;;4988211;28;90163;-35
2023/08/13 05:48:56;;;;;;;11.90;5.00;;;17.10;99.90;;;;;;4990294;28;89772;-32
2023/08/13 05:51:22;;;;;;;7.43;4.75;;;17.00;99.90;;;;;;4988413;28;89116;-34
2023/08/13 05:53:48;;;;;;;10.18;5.53;;;17.00;99.90;;;;;;4991126;28;90245;-31
2023/08/13 05:56:14;;;;;;;14.23;5.05;;;17.00;99.90;;;;;;4989027;28;90488;-39
2023/08/13 05:58:39;;;;;;;8.95;4.65;;;17.10;99.90;;;;;;4990333;28;89551;-31
2023/08/13 06:01:05;;;;;;;11.10;4.78;;;17.30;99.90;;;;;;4990468;28;90995;-32
2023/08/13 06:03:32;;;;;;;10.52;5.85;;;17.50;99.90;;;;;;4985871;28;91305;-33
2023/08/13 06:05:58;;;;;;;7.97;5.15;;;17.60;99.90;;;;;;4984084;28;89891;-33
2023/08/13 06:08:24;;;;;;;12.05;4.70;;;17.70;99.90;;;;;;4997939;28;89721;-31
2023/08/13 06:10:50;;;;;;;12.80;7.20;;;17.70;99.90;;;;;;4979386;28;90265;-35
2023/08/13 06:13:15;;;;;;;9.35;4.45;;;17.70;99.90;;;;;;4991812;28;89752;-32
2023/08/13 06:15:41;;;;;;;9.23;4.85;;;17.80;99.90;;;;;;4981783;28;89639;-30
2023/08/13 06:18:07;;;;;;;11.27;5.68;;;17.80;99.90;;;;;;4963826;28;89820;-32
2023/08/13 06:20:32;;;;;;;11.93;4.63;;;17.80;99.90;;;;;;4988521;28;88786;-37
2023/08/13 06:22:58;;;;;;;10.18;5.38;;;17.80;99.90;;;;;;4988368;28;90106;-33
2023/08/13 06:25:24;;;;;;;6.80;4.25;;;17.60;99.90;;;;;;4980802;28;90880;-31
2023/08/13 06:27:49;;;;;;;11.52;4.43;;;17.80;99.90;;;;;;4981710;28;90578;-31
2023/08/13 06:30:15;;;;;;;9.13;5.45;;;17.80;99.90;;;;;;4980447;28;88842;-32
2023/08/13 06:32:41;;;;;;;8.40;4.75;;;17.80;99.90;;;;;;4994546;28;89963;-33
2023/08/13 06:35:07;;;;;;;10.18;5.78;;;17.80;99.90;;;;;;4981647;28;91603;-31
2023/08/13 06:37:33;;;;;;;11.95;5.57;;;17.80;99.90;;;;;;4989201;28;88801;-32
2023/08/13 06:39:58;;;;;;;8.75;4.30;;;17.90;99.90;;;;;;4988477;28;89200;-31
2023/08/13 06:42:24;;;;;;;9.52;5.18;;;18.10;99.90;;;;;;5001264;28;91034;-31
2023/08/13 06:44:50;;;;;;;9.15;4.90;;;18.30;99.90;;;;;;4999094;28;89599;-37
2023/08/13 06:47:15;;;;;;;11.07;4.90;;;18.50;99.90;;;;;;4980984;28;89588;-32
2023/08/13 06:49:41;;;;;;;12.93;6.28;;;18.60;99.90;;;;;;4982489;28;88907;-34
2023/08/13 06:52:07;;;;;;;12.23;5.70;;;18.50;99.90;;;;;;4992742;28;90622;-37
2023/08/13 06:54:33;;;;;;;7.75;4.28;;;18.70;99.90;;;;;;4980680;28;90262;-37
2023/08/13 06:56:59;;;;;;;11.82;4.75;;;19.10;99.90;;;;;;4991359;28;90067;-32
2023/08/13 06:59:25;;;;;;;12.32;4.70;;;19.30;99.90;;;;;;5000222;28;89161;-34
2023/08/13 07:01:50;;;;;;;7.75;4.95;;;19.60;99.90;;;;;;5000786;28;89176;-33
2023/08/13 07:04:16;;;;;;;11.20;4.68;;;19.70;99.90;;;;;;5000037;28;89729;-31
2023/08/13 07:06:42;;;;;;;5.60;4.10;;;19.90;99.90;;;;;;4988838;28;89802;-35
2023/08/13 07:09:07;;;;;;;12.63;5.03;;;20.10;99.90;;;;;;4999867;28;89120;-36
2023/08/13 07:11:34;;;;;;;6.68;4.75;;;20.30;99.90;;;;;;4998808;28;90351;-35
2023/08/13 07:14:03;;;;;;;12.48;5.88;;;20.10;99.90;;;;;;4998619;28;90881;-37
2023/08/13 07:16:29;;;;;;;12.13;4.80;;;19.90;99.90;;;;;;5000674;28;90546;-32
2023/08/13 07:18:54;;;;;;;13.57;4.97;;;20.10;99.90;;;;;;4999393;28;88579;-31
2023/08/13 07:21:20;;;;;;;6.55;4.32;;;20.20;99.90;;;;;;4998529;28;89205;-30
2023/08/13 07:23:45;;;;;;;7.32;4.70;;;20.70;99.90;;;;;;4998957;28;89280;-36
2023/08/13 07:26:11;;;;;;;9.50;4.50;;;21.00;99.90;;;;;;4986473;28;89540;-33
2023/08/13 07:28:40;;;;;;;7.55;4.40;;;21.30;99.90;;;;;;4986865;28;89743;-31
2023/08/13 07:31:06;;;;;;;6.32;4.50;;;21.60;99.90;;;;;;4998736;28;90359;-33
2023/08/13 07:33:32;;;;;;;7.93;4.78;;;21.70;99.90;;;;;;4983705;28;90483;-35
2023/08/13 07:36:02;;;;;;;14.10;6.72;;;21.60;99.90;;;;;;4981231;28;89407;-37
2023/08/13 07:38:27;;;;;;;11.52;5.00;;;21.30;99.90;;;;;;4994678;28;88821;-33
2023/08/13 07:40:55;;;;;;;14.43;5.90;;;21.50;99.90;;;;;;4998537;28;90389;-30
2023/08/13 07:43:21;;;;;;;8.27;4.90;;;21.70;99.90;;;;;;4997845;28;91064;-34
2023/08/13 07:45:47;;;;;;;7.03;4.78;;;21.60;99.90;;;;;;4988697;28;89486;-30
2023/08/13 07:48:12;;;;;;;11.60;5.07;;;21.30;99.90;;;;;;4973775;28;88389;-32
2023/08/13 07:50:39;;;;;;;13.02;6.13;;;21.30;99.90;;;;;;4977961;28;90384;-35
2023/08/13 07:53:04;;;;;;;8.48;4.10;;;21.70;99.90;;;;;;4978665;28;90564;-34
2023/08/13 07:55:30;;;;;;;10.23;5.50;;;21.60;99.90;;;;;;4978730;28;89953;-35
2023/08/13 07:57:55;;;;;;;8.98;4.57;;;21.50;99.90;;;;;;4994802;28;88547;-36
2023/08/13 08:00:21;;;;;;;5.55;3.75;;;21.30;99.90;;;;;;4987248;28;89341;-30
2023/08/13 08:02:47;;;;;;;6.85;4.15;;;21.30;99.90;;;;;;4996936;28;90664;-33
2023/08/13 08:05:12;;;;;;;7.57;4.05;;;21.40;99.90;;;;;;4998451;28;90996;-35
2023/08/13 08:07:38;;;;;;;7.18;4.15;;;21.60;99.90;;;;;;4991195;28;88597;-36
2023/08/13 08:10:04;;;;;;;8.80;3.97;;;21.40;99.90;;;;;;4977704;28;89969;-33
2023/08/13 08:12:30;;;;;;;12.77;3.42;;;21.80;99.90;;;;;;4996645;28;89214;-34
2023/08/13 08:14:56;;;;;;;8.55;4.03;;;22.10;99.90;;;;;;4997232;28;89614;-36
2023/08/13 08:17:21;;;;;;;9.30;3.63;;;22.60;99.90;;;;;;4997528;28;89226;-36
2023/08/13 08:19:48;;;;;;;6.43;3.45;;;22.60;99.90;;;;;;5049019;22;90473;-33
2023/08/13 08:22:15;;;;;;;10.77;3.53;;;22.90;99.90;;;;;;4957879;28;90745;-35
2023/08/13 08:24:41;;;;;;;7.10;3.55;;;22.70;99.90;;;;;;4958680;28;88673;-32
2023/08/13 08:27:08;;;;;;;5.93;3.15;;;22.50;99.90;;;;;;4964838;28;90700;-31
2023/08/13 08:29:34;;;;;;;6.80;3.63;;;22.20;99.90;;;;;;4959042;28;89952;-32
2023/08/13 08:32:00;;;;;;;4.65;2.88;;;22.30;99.90;;;;;;4959674;28;89792;-31
2023/08/13 08:34:26;;;;;;;7.13;3.22;;;22.60;99.90;;;;;;4958670;28;89002;-33
2023/08/13 08:36:52;;;;;;;7.10;3.15;;;22.20;99.90;;;;;;4967905;28;89925;-32
2023/08/13 08:39:18;;;;;;;6.43;2.72;;;22.60;99.90;;;;;;4979115;28;91927;-33
2023/08/13 08:41:47;;;;;;;7.03;4.10;;;22.60;99.90;;;;;;4957406;28;89624;-38
2023/08/13 08:44:20;;;;;;;6.15;4.13;;;22.20;99.90;;;;;;4967308;28;89231;-34
2023/08/13 08:46:50;;;;;;;10.30;3.58;;;22.10;99.90;;;;;;4960439;28;88950;-35
2023/08/13 08:49:18;;;;;;;4.93;2.95;;;22.60;99.90;;;;;;4956931;28;89890;-34
2023/08/13 08:51:45;;;;;;;10.05;4.05;;;22.90;99.90;;;;;;4957436;28;90601;-30
2023/08/13 08:54:11;;;;;;;15.93;3.55;;;22.80;99.90;;;;;;4969640;28;89710;-34
2023/08/13 08:56:37;;;;;;;3.95;3.00;;;22.80;99.90;;;;;;4971599;28;89442;-34
2023/08/13 08:59:04;;;;;;;6.97;3.25;;;22.90;99.90;;;;;;4957456;28;90178;-32
2023/08/13 09:01:30;;;;;;;11.10;3.50;;;22.80;99.90;;;;;;4978971;28;90153;-36
2023/08/13 09:03:56;;;;;;;7.78;4.82;;;23.20;99.90;;;;;;4974118;28;89462;-35
2023/08/13 09:06:21;;;;;;;2.65;2.42;;;23.40;99.90;;;;;;4959475;28;89310;-33
2023/08/13 09:08:47;;;;;;;6.20;3.03;;;23.40;99.90;;;;;;4972363;28;90405;-31
2023/08/13 09:11:13;;;;;;;5.72;2.83;;;23.30;99.90;;;;;;4974892;28;89659;-35
2023/08/13 09:13:49;;;;;;;6.25;3.22;;;23.60;99.90;;;;;;4974163;28;89446;-34
2023/08/13 09:16:15;;;;;;;9.88;3.25;;;23.40;99.90;;;;;;4974509;28;88485;-35
2023/08/13 09:18:40;;;;;;;6.28;3.47;;;23.50;99.90;;;;;;4972808;28;89748;-34
2023/08/13 09:21:08;;;;;;;6.07;3.97;;;23.80;99.90;;;;;;4975423;28;90173;-32
2023/08/13 09:23:36;;;;;;;;;;;23.50;99.90;;;;;;4972966;28;89860;-33
2023/08/13 09:26:02;;;;;;;5.15;3.30;;;23.40;99.90;;;;;;4977311;28;89106;-32
2023/08/13 09:28:28;;;;;;;2.78;2.28;;;23.30;99.90;;;;;;4974959;28;89815;-36
2023/08/13 09:30:53;;;;;;;3.35;3.05;;;23.30;99.90;;;;;;4975239;28;89871;-35
2023/08/13 09:33:19;;;;;;;5.15;2.72;;;23.60;99.90;;;;;;4974142;28;89709;-36
2023/08/13 09:35:45;;;;;;;6.85;2.58;;;23.50;99.90;;;;;;4976269;28;88416;-33
2023/08/13 09:38:11;;;;;;;5.80;3.13;;;23.60;99.90;;;;;;4991796;28;90591;-35
2023/08/13 09:40:37;;;;;;;9.15;4.10;;;23.60;99.90;;;;;;4956881;28;90509;-34
2023/08/13 09:43:09;;;;;;;7.18;3.00;;;23.30;99.90;;;;;;4969369;28;90489;-34
2023/08/13 09:45:35;;;;;;;2.53;2.33;;;23.10;99.90;;;;;;4956907;28;87617;-34
2023/08/13 09:48:05;;;;;;;13.38;3.22;;;23.10;99.90;;;;;;4962710;28;90439;-33
2023/08/13 09:50:39;;;;;;;4.82;3.22;;;23.10;99.90;;;;;;4960075;28;90468;-32
2023/08/13 09:53:11;;;;;;;4.88;2.63;;;22.90;99.90;;;;;;4963676;28;90060;-37
2023/08/13 09:55:47;;;;;;;3.70;2.42;;;22.80;99.90;;;;;;4963272;28;89476;-32
2023/08/13 09:58:14;;;;;;;4.72;2.67;;;23.00;99.90;;;;;;4963309;28;90309;-35
2023/08/13 10:00:40;;;;;;;4.40;1.95;;;23.20;99.90;;;;;;4965358;28;92118;-31
2023/08/13 10:03:07;;;;;;;6.82;2.60;;;22.80;99.90;;;;;;4986151;28;89517;-35
2023/08/13 10:05:33;;;;;;;2.90;1.90;;;22.60;99.90;;;;;;4973684;28;88989;-33
2023/08/13 10:07:59;;;;;;;3.85;2.00;;;22.90;99.90;;;;;;4956248;28;90012;-34
2023/08/13 10:10:26;;;;;;;3.97;2.13;;;22.70;99.90;;;;;;4956068;28;90234;-33
2023/08/13 10:12:52;;;;;;;10.52;2.42;;;22.90;99.90;;;;;;4966069;28;89979;-34
2023/08/13 10:15:20;;;;;;;4.28;2.33;;;23.10;99.90;;;;;;4960628;28;88736;-32
2023/08/13 10:17:46;;;;;;;2.95;1.73;;;23.30;99.90;;;;;;4956709;28;90207;-35
2023/08/13 10:20:12;;;;;;;2.28;2.00;;;23.20;99.90;;;;;;4956761;28;90068;-32
2023/08/13 10:22:39;;;;;;;9.10;2.20;;;23.30;99.90;;;;;;4956962;28;88842;-36
2023/08/13 10:25:07;;;;;;;2.75;2.08;;;23.30;99.90;;;;;;4957983;28;89083;-32
2023/08/13 10:27:38;;;;;;;3.42;1.83;;;23.00;99.90;;;;;;4966980;28;89839;-34
2023/08/13 10:30:05;;;;;;;2.53;1.48;;;22.90;99.90;;;;;;4958703;28;91053;-31
2023/08/13 10:32:31;;;;;;;4.20;2.08;;;22.80;99.90;;;;;;4957426;28;89329;-31
2023/08/13 10:34:57;;;;;;;6.15;2.05;;;23.10;99.90;;;;;;4957126;28;88893;-32
2023/08/13 10:37:24;;;;;;;7.05;2.22;;;23.30;99.90;;;;;;4969165;28;90715;-32
2023/08/13 10:39:55;;;;;;;5.25;2.47;;;23.00;99.90;;;;;;4968594;28;90095;-35
2023/08/13 10:42:27;;;;;;;1.58;1.35;;;22.90;99.90;;;;;;4974817;28;89878;-36
2023/08/13 10:45:07;;;;;;;4.68;1.70;;;22.90;99.90;;;;;;4979507;28;88163;-34
2023/08/13 10:47:54;;;;;;;4.07;1.83;;;22.80;99.90;;;;;;4965929;28;90500;-31
2023/08/13 10:50:43;;;;;;;3.03;1.50;;;22.80;99.90;;;;;;4955373;28;89923;-31
2023/08/13 10:53:11;;;;;;;3.22;1.38;;;22.90;99.90;;;;;;4965389;28;89023;-33
2023/08/13 10:55:48;;;;;;;4.93;1.63;;;23.10;99.90;;;;;;4968811;28;89098;-36
2023/08/13 10:58:25;;;;;;;4.10;1.98;;;23.20;99.90;;;;;;4932985;28;90109;-33
2023/08/13 11:00:52;;;;;;;7.45;2.03;;;23.30;99.90;;;;;;4968874;28;89226;-33
2023/08/13 11:03:22;;;;;;;4.97;2.03;;;23.10;99.90;;;;;;4987039;28;90291;-35
2023/08/13 11:05:50;;;;;;;5.93;1.52;;;23.30;99.90;;;;;;4973660;28;89457;-31
2023/08/13 11:08:21;;;;;;;5.03;2.33;;;23.30;99.90;;;;;;4965823;28;90458;-31
2023/08/13 11:10:47;;;;;;;3.45;1.38;;;23.30;99.90;;;;;;4960210;28;91487;-31
2023/08/13 11:13:15;;;;;;;2.65;1.70;;;23.30;99.90;;;;;;4966899;28;89880;-32
2023/08/13 11:15:52;;;;;;;2.55;1.73;;;23.20;99.90;;;;;;4960565;28;89698;-35
2023/08/13 11:18:17;;;;;;;6.35;1.60;;;23.10;99.90;;;;;;4971651;28;91244;-34
2023/08/13 11:20:44;;;;;;;2.13;1.85;;;22.90;99.90;;;;;;4965811;28;90215;-31
2023/08/13 11:23:12;;;;;;;4.88;2.67;;;22.80;99.90;;;;;;4952742;28;89395;-35
2023/08/13 11:25:39;;;;;;;3.50;1.42;;;22.80;99.90;;;;;;4974649;28;89649;-30
2023/08/13 11:28:04;;;;;;;2.17;1.33;;;22.60;99.90;;;;;;4976446;28;90940;-33
2023/08/13 11:30:30;;;;;;;2.25;1.80;;;22.60;99.90;;;;;;4981224;28;89710;-32
2023/08/13 11:32:57;;;;;;;3.63;1.58;;;22.60;99.90;;;;;;4971885;28;90195;-30
2023/08/13 11:35:23;;;;;;;5.93;2.03;;;22.40;99.90;;;;;;4974383;28;89201;-31
2023/08/13 11:37:48;;;;;;;2.72;1.75;;;22.20;99.90;;;;;;4985091;28;90326;-33
2023/08/13 11:40:16;;;;;;;4.68;1.52;;;22.20;99.90;;;;;;4980341;28;88808;-36
2023/08/13 11:43:11;;;;;;;2.43;1.13;;;22.20;99.90;;;;;;4977645;28;89765;-35
2023/08/13 11:45:38;;;;;;;8.50;1.65;;;22.10;99.90;;;;;;4967712;28;90288;-32
2023/08/13 11:48:15;;;;;;;4.17;2.13;;;22.10;99.90;;;;;;4979360;28;91470;-32
2023/08/13 11:50:46;;;;;;;2.78;1.52;;;22.10;99.90;;;;;;4997739;28;89634;-34
2023/08/13 11:53:14;;;;;;;4.78;1.73;;;22.00;99.90;;;;;;4980565;28;89718;-32
2023/08/13 11:55:43;;;;;;;6.93;1.70;;;22.10;99.90;;;;;;4978576;28;89504;-35
2023/08/13 11:58:09;;;;;;;1.90;1.42;;;22.10;99.90;;;;;;4963626;28;89911;-36
2023/08/13 12:00:35;;;;;;;5.55;2.10;;;22.30;99.90;;;;;;4978577;28;90475;-32
2023/08/13 12:03:01;;;;;;;3.90;1.95;;;22.30;99.90;;;;;;4990384;28;89984;-32
2023/08/13 12:05:31;;;;;;;8.43;1.90;;;22.30;99.90;;;;;;4988729;28;89288;-36
2023/08/13 12:08:09;;;;;;;1.55;1.45;;;22.60;99.90;;;;;;4966578;28;90631;-33
2023/08/13 12:10:37;;;;;;;3.88;2.10;;;22.50;99.90;;;;;;4985517;28;90338;-31
2023/08/13 12:13:04;;;;;;;2.42;1.75;;;22.60;99.90;;;;;;4968412;28;90378;-36
2023/08/13 12:15:31;;;;;;;6.60;2.17;;;22.60;99.90;;;;;;4959152;28;88993;-35
2023/08/13 12:17:58;;;;;;;3.60;1.58;;;22.60;99.90;;;;;;4959551;28;90268;-33
2023/08/13 12:20:24;;;;;;;5.60;2.80;;;22.50;99.90;;;;;;4975359;28;90309;-33
2023/08/13 12:22:50;;;;;;;4.00;1.75;;;22.50;99.90;;;;;;4974894;28;89762;-34
2023/08/13 12:25:16;;;;;;;2.97;2.10;;;22.60;99.90;;;;;;4971091;28;88951;-34
2023/08/13 12:27:43;;;;;;;5.25;1.95;;;22.60;99.90;;;;;;4966256;28;89736;-37
2023/08/13 12:30:10;;;;;;;2.03;1.65;;;22.70;99.90;;;;;;4975777;28;89743;-35
2023/08/13 12:32:36;;;;;;;6.57;2.28;;;22.60;99.90;;;;;;4966033;28;90898;-32
2023/08/13 12:35:01;;;;;;;3.92;2.40;;;22.50;99.90;;;;;;4970872;28;89836;-37
2023/08/13 12:37:27;;;;;;;5.10;2.20;;;22.40;99.90;;;;;;4983574;28;90510;-32
2023/08/13 12:39:53;;;;;;;5.43;2.40;;;22.20;99.90;;;;;;4968643;28;90236;-31
2023/08/13 12:42:20;;;;;;;13.95;2.85;;;22.20;99.90;;;;;;4958072;28;90083;-36